createdAt,value
2019-05-06T00:00:34.097Z,10.53
2019-05-06T00:03:05.102Z,10.45
2019-05-06T00:05:35.461Z,10.30
2019-05-06T00:08:04.856Z,10.20
2019-05-06T00:10:39.184Z,10.15
2019-05-06T00:13:09.784Z,10.30
2019-05-06T00:15:39.276Z,10.21
2019-05-06T00:18:08.650Z,10.19
2019-05-06T00:20:39.110Z,10.04
2019-05-06T00:23:14.273Z,9.85
2019-05-06T00:25:58.094Z,9.97
2019-05-06T00:28:29.345Z,9.89
2019-05-06T00:31:10.427Z,9.86
2019-05-06T00:33:34.127Z,9.72
2019-05-06T00:36:04.534Z,9.53
2019-05-06T00:38:34.250Z,9.61
2019-05-06T00:41:07.139Z,9.74
2019-05-06T00:43:38.976Z,9.74
2019-05-06T00:46:10.707Z,9.81
2019-05-06T00:48:41.151Z,9.90
2019-05-06T00:51:13.556Z,9.92
2019-05-06T00:53:45.634Z,9.80
2019-05-06T00:56:15.075Z,9.70
2019-05-06T00:58:46.534Z,9.63
2019-05-06T01:01:26.292Z,9.62
2019-05-06T01:03:48.083Z,9.71
2019-05-06T01:06:17.585Z,9.44
2019-05-06T01:08:47.221Z,9.58
2019-05-06T01:11:18.662Z,9.51
2019-05-06T01:13:54.395Z,9.56
2019-05-06T01:16:24.939Z,9.41
2019-05-06T01:18:54.277Z,9.42
2019-05-06T01:21:23.958Z,9.38
2019-05-06T01:23:55.909Z,9.32
2019-05-06T01:26:25.496Z,9.00
2019-05-06T01:28:56.314Z,9.03
2019-05-06T01:31:39.741Z,8.99
2019-05-06T01:34:04.101Z,8.81
2019-05-06T01:36:35.022Z,8.85
2019-05-06T01:39:11.190Z,9.11
2019-05-06T01:41:53.665Z,9.20
2019-05-06T01:44:24.441Z,9.09
2019-05-06T01:46:54.836Z,9.24
2019-05-06T01:49:24.619Z,9.39
2019-05-06T01:51:54.775Z,9.34
2019-05-06T01:54:24.985Z,9.22
2019-05-06T01:56:54.622Z,9.13
2019-05-06T01:59:24.991Z,9.09
2019-05-06T02:02:00.566Z,9.12
2019-05-06T02:04:25.420Z,9.10
2019-05-06T02:06:54.888Z,8.92
2019-05-06T02:09:24.848Z,8.99
2019-05-06T02:11:54.348Z,8.84
2019-05-06T02:14:24.678Z,8.79
2019-05-06T02:16:54.751Z,8.68
2019-05-06T02:19:24.370Z,8.41
2019-05-06T02:21:56.542Z,8.67
2019-05-06T02:24:28.723Z,8.66
2019-05-06T02:26:58.086Z,8.60
2019-05-06T02:29:36.013Z,8.25
2019-05-06T02:32:25.911Z,8.48
2019-05-06T02:34:54.788Z,8.67
2019-05-06T02:37:35.055Z,8.81
2019-05-06T02:40:04.378Z,8.90
2019-05-06T02:42:35.943Z,8.77
2019-05-06T02:45:07.077Z,8.72
2019-05-06T02:47:42.941Z,8.75
2019-05-06T02:50:26.779Z,8.72
2019-05-06T02:52:56.149Z,8.71
2019-05-06T02:55:26.663Z,8.86
2019-05-06T02:57:57.162Z,8.84
2019-05-06T03:00:27.880Z,8.76
2019-05-06T03:02:58.746Z,8.63
2019-05-06T03:05:29.231Z,8.74
2019-05-06T03:07:58.523Z,8.69
2019-05-06T03:10:28.877Z,8.78
2019-05-06T03:12:59.193Z,8.83
2019-05-06T03:15:29.647Z,8.89
2019-05-06T03:17:58.620Z,8.84
2019-05-06T03:20:44.016Z,8.86
2019-05-06T03:23:23.841Z,8.82
2019-05-06T03:25:54.292Z,8.63
2019-05-06T03:28:25.422Z,8.73
2019-05-06T03:30:56.690Z,8.73
2019-05-06T03:33:47.426Z,8.82
2019-05-06T03:36:13.719Z,8.73
2019-05-06T03:38:33.446Z,8.76
2019-05-06T03:41:03.157Z,8.80
2019-05-06T03:43:34.132Z,8.83
2019-05-06T03:46:24.071Z,8.95
2019-05-06T03:48:57.398Z,9.08
2019-05-06T03:51:27.902Z,9.15
2019-05-06T03:53:58.774Z,9.13
2019-05-06T03:56:30.003Z,9.18
2019-05-06T03:59:02.804Z,9.31
2019-05-06T04:01:33.805Z,9.37
2019-05-06T04:04:03.735Z,9.35
2019-05-06T04:06:33.721Z,9.63
2019-05-06T04:09:06.923Z,9.74
2019-05-06T04:11:38.318Z,9.81
2019-05-06T04:14:14.033Z,9.79
2019-05-06T04:16:53.527Z,10.03
2019-05-06T04:19:33.332Z,10.20
2019-05-06T04:22:13.611Z,10.42
2019-05-06T04:24:47.090Z,10.53
2019-05-06T04:27:33.509Z,10.42
2019-05-06T04:30:04.706Z,10.55
2019-05-06T04:32:38.836Z,10.42
2019-05-06T04:35:08.443Z,10.54
2019-05-06T04:37:42.742Z,10.52
2019-05-06T04:40:12.944Z,10.66
2019-05-06T04:42:44.558Z,10.69
2019-05-06T04:45:17.253Z,10.63
2019-05-06T04:47:46.110Z,10.64
2019-05-06T04:50:17.118Z,10.71
2019-05-06T04:52:46.576Z,10.80
2019-05-06T04:55:16.164Z,10.97
2019-05-06T04:57:48.747Z,11.09
2019-05-06T05:00:19.164Z,11.28
2019-05-06T05:02:54.777Z,11.47
2019-05-06T05:05:23.927Z,11.66
2019-05-06T05:07:53.333Z,12.12
2019-05-06T05:10:25.329Z,12.31
2019-05-06T05:13:03.645Z,13.02
2019-05-06T05:15:35.919Z,14.43
2019-05-06T05:18:14.419Z,16.45
2019-05-06T05:20:46.535Z,15.39
2019-05-06T05:23:15.889Z,14.56
2019-05-06T05:25:45.135Z,15.00
2019-05-06T05:28:15.725Z,14.58
2019-05-06T05:30:46.258Z,14.37
2019-05-06T05:33:16.878Z,15.02
2019-05-06T05:35:46.465Z,15.04
2019-05-06T05:38:16.858Z,15.81
2019-05-06T05:40:47.254Z,18.49
2019-05-06T05:43:26.547Z,21.40
2019-05-06T05:45:57.257Z,22.70
2019-05-06T05:48:35.078Z,23.96
2019-05-06T05:51:05.693Z,26.02
2019-05-06T05:53:35.060Z,28.19
2019-05-06T05:56:04.567Z,29.60
2019-05-06T05:58:34.243Z,29.58
2019-05-06T06:01:04.252Z,30.88
2019-05-06T06:03:34.908Z,30.34
2019-05-06T06:06:04.306Z,30.00
2019-05-06T06:08:36.773Z,26.26
2019-05-06T06:11:12.197Z,25.59
2019-05-06T06:13:43.333Z,25.47
2019-05-06T06:16:32.846Z,25.18
2019-05-06T06:19:06.113Z,28.49
2019-05-06T06:21:42.660Z,27.70
2019-05-06T06:24:22.422Z,26.76
2019-05-06T06:26:52.147Z,30.52
2019-05-06T06:29:22.827Z,33.91
2019-05-06T06:32:06.806Z,34.29
2019-05-06T06:34:43.577Z,37.66
2019-05-06T06:37:22.568Z,39.73
2019-05-06T06:39:53.273Z,39.82
2019-05-06T06:42:23.913Z,40.61
2019-05-06T06:44:54.894Z,42.27
2019-05-06T06:47:25.648Z,42.00
2019-05-06T06:49:57.646Z,42.79
2019-05-06T06:52:29.581Z,43.47
2019-05-06T06:54:59.029Z,43.54
2019-05-06T06:57:35.824Z,43.84
2019-05-06T07:00:09.268Z,44.28
2019-05-06T07:02:47.810Z,45.30
2019-05-06T07:05:25.463Z,44.58
2019-05-06T07:07:53.213Z,43.13
2019-05-06T07:10:42.895Z,44.76
2019-05-06T07:13:12.741Z,44.96
2019-05-06T07:15:43.353Z,42.08
2019-05-06T07:18:14.531Z,44.17
2019-05-06T07:20:58.266Z,45.66
2019-05-06T07:23:32.693Z,44.06
2019-05-06T07:26:04.952Z,45.53
2019-05-06T07:28:34.327Z,45.06
2019-05-06T07:31:20.748Z,47.98
2019-05-06T07:33:39.065Z,48.32
2019-05-06T07:36:12.857Z,46.81
2019-05-06T07:38:44.570Z,49.71
2019-05-06T07:41:15.916Z,49.43
2019-05-06T07:43:57.073Z,49.59
2019-05-06T07:46:47.863Z,48.90
2019-05-06T07:49:18.669Z,49.18
2019-05-06T07:51:48.207Z,50.55
2019-05-06T07:54:18.655Z,48.65
2019-05-06T07:56:49.154Z,49.63
2019-05-06T07:59:22.291Z,48.36
2019-05-06T08:01:53.842Z,48.73
2019-05-06T08:04:23.097Z,50.01
2019-05-06T08:06:52.676Z,47.15
2019-05-06T08:09:22.227Z,48.47
2019-05-06T08:11:53.151Z,48.20
2019-05-06T08:14:23.788Z,47.93
2019-05-06T08:17:02.365Z,49.86
2019-05-06T08:19:33.595Z,50.13
2019-05-06T08:22:12.006Z,49.41
2019-05-06T08:24:42.523Z,49.07
2019-05-06T08:27:12.340Z,48.41
2019-05-06T08:29:42.470Z,48.67
2019-05-06T08:32:13.006Z,47.88
2019-05-06T08:34:43.841Z,47.15
2019-05-06T08:37:24.472Z,47.91
2019-05-06T08:39:56.964Z,47.90
2019-05-06T08:42:26.337Z,41.92
2019-05-06T08:44:59.448Z,32.28
2019-05-06T08:47:28.975Z,27.61
2019-05-06T08:50:02.448Z,28.54
2019-05-06T08:52:52.319Z,36.74
2019-05-06T08:55:36.634Z,39.91
2019-05-06T08:58:09.289Z,43.59
2019-05-06T09:00:44.287Z,44.64
2019-05-06T09:03:14.369Z,33.92
2019-05-06T09:05:46.571Z,29.41
2019-05-06T09:08:15.832Z,26.64
2019-05-06T09:10:45.228Z,24.90
2019-05-06T09:13:14.653Z,23.73
2019-05-06T09:15:44.052Z,23.00
2019-05-06T09:18:14.420Z,23.27
2019-05-06T09:20:43.933Z,23.37
2019-05-06T09:23:14.496Z,24.35
2019-05-06T09:25:43.582Z,26.69
2019-05-06T09:28:29.089Z,33.68
2019-05-06T09:31:02.216Z,34.33
2019-05-06T09:33:34.513Z,28.78
2019-05-06T09:36:04.904Z,26.58
2019-05-06T09:38:35.518Z,24.46
2019-05-06T09:41:06.130Z,23.38
2019-05-06T09:43:35.503Z,22.38
2019-05-06T09:46:05.017Z,21.39
2019-05-06T09:48:36.929Z,20.80
2019-05-06T09:51:06.304Z,20.35
2019-05-06T09:53:43.270Z,19.89
2019-05-06T09:56:23.021Z,19.10
2019-05-06T09:58:55.054Z,18.97
2019-05-06T10:01:25.582Z,18.75
2019-05-06T10:03:55.969Z,18.49
2019-05-06T10:06:26.492Z,18.34
2019-05-06T10:08:56.889Z,18.07
2019-05-06T10:11:27.297Z,18.28
2019-05-06T10:13:59.180Z,18.48
2019-05-06T10:16:28.569Z,19.00
2019-05-06T10:18:58.864Z,19.06
2019-05-06T10:21:29.580Z,19.64
2019-05-06T10:24:02.193Z,19.78
2019-05-06T10:26:34.897Z,20.26
2019-05-06T10:29:08.598Z,20.30
2019-05-06T10:31:39.672Z,21.20
2019-05-06T10:34:14.385Z,21.61
2019-05-06T10:37:15.333Z,22.06
2019-05-06T10:39:47.291Z,22.60
2019-05-06T10:42:23.063Z,23.09
2019-05-06T10:45:05.263Z,23.27
2019-05-06T10:47:35.637Z,23.72
2019-05-06T10:50:06.735Z,22.97
2019-05-06T10:52:55.059Z,22.74
2019-05-06T10:55:23.869Z,22.42
2019-05-06T10:57:56.273Z,22.25
2019-05-06T11:00:26.676Z,21.97
2019-05-06T11:03:15.187Z,22.37
2019-05-06T11:05:46.077Z,22.79
2019-05-06T11:08:17.157Z,23.30
2019-05-06T11:10:47.639Z,23.52
2019-05-06T11:13:18.246Z,23.65
2019-05-06T11:15:52.867Z,24.04
2019-05-06T11:18:25.211Z,22.80
2019-05-06T11:20:56.363Z,23.33
2019-05-06T11:23:25.751Z,23.30
2019-05-06T11:25:56.113Z,23.32
2019-05-06T11:28:45.235Z,23.51
2019-05-06T11:31:29.073Z,22.84
2019-05-06T11:34:13.288Z,22.80
2019-05-06T11:36:44.433Z,23.34
2019-05-06T11:39:15.870Z,23.30
2019-05-06T11:42:01.661Z,22.83
2019-05-06T11:44:17.450Z,21.99
2019-05-06T11:46:46.881Z,21.01
2019-05-06T11:49:16.258Z,19.86
2019-05-06T11:51:45.030Z,19.33
2019-05-06T11:54:17.573Z,18.78
2019-05-06T11:56:50.914Z,18.82
2019-05-06T11:59:19.218Z,18.75
2019-05-06T12:01:53.180Z,18.49
2019-05-06T12:04:22.932Z,18.89
2019-05-06T12:07:09.174Z,19.12
2019-05-06T12:09:26.613Z,19.07
2019-05-06T12:11:56.095Z,19.30
2019-05-06T12:14:25.461Z,19.50
2019-05-06T12:16:55.819Z,19.46
2019-05-06T12:19:25.410Z,19.29
2019-05-06T12:21:55.804Z,19.35
2019-05-06T12:24:25.270Z,19.43
2019-05-06T12:26:55.681Z,19.68
2019-05-06T12:29:26.077Z,19.90
2019-05-06T12:32:00.240Z,19.80
2019-05-06T12:34:32.508Z,19.90
2019-05-06T12:37:03.507Z,19.96
2019-05-06T12:39:34.278Z,20.46
2019-05-06T12:42:08.959Z,20.69
2019-05-06T12:44:40.147Z,20.99
2019-05-06T12:47:27.005Z,21.18
2019-05-06T12:49:58.544Z,21.40
2019-05-06T12:52:28.249Z,21.38
2019-05-06T12:55:16.380Z,21.75
2019-05-06T12:57:28.990Z,21.64
2019-05-06T12:59:58.353Z,22.01
2019-05-06T13:02:29.126Z,22.15
2019-05-06T13:05:03.217Z,22.42
2019-05-06T13:07:33.915Z,22.71
2019-05-06T13:10:04.314Z,22.49
2019-05-06T13:12:33.928Z,22.82
2019-05-06T13:15:07.680Z,23.10
2019-05-06T13:17:36.491Z,23.36
2019-05-06T13:20:14.450Z,23.34
2019-05-06T13:22:46.061Z,23.17
2019-05-06T13:25:15.686Z,23.18
2019-05-06T13:27:46.974Z,22.28
2019-05-06T13:30:22.707Z,22.76
2019-05-06T13:32:54.988Z,21.98
2019-05-06T13:35:24.393Z,22.50
2019-05-06T13:37:55.070Z,22.74
2019-05-06T13:40:27.227Z,22.75
2019-05-06T13:43:05.386Z,22.80
2019-05-06T13:45:36.882Z,22.73
2019-05-06T13:48:08.912Z,23.04
2019-05-06T13:50:41.920Z,23.70
2019-05-06T13:53:14.671Z,23.11
2019-05-06T13:55:43.418Z,23.21
2019-05-06T13:58:14.202Z,23.19
2019-05-06T14:00:44.591Z,23.03
2019-05-06T14:03:17.564Z,22.94
2019-05-06T14:05:47.284Z,22.61
2019-05-06T14:08:21.703Z,22.20
2019-05-06T14:10:59.255Z,21.93
2019-05-06T14:13:23.989Z,22.22
2019-05-06T14:15:53.547Z,22.00
2019-05-06T14:18:22.869Z,22.15
2019-05-06T14:20:52.329Z,22.45
2019-05-06T14:23:22.281Z,22.73
2019-05-06T14:25:54.652Z,21.70
2019-05-06T14:28:26.784Z,21.40
2019-05-06T14:30:58.833Z,20.40
2019-05-06T14:33:32.270Z,19.53
2019-05-06T14:36:03.223Z,19.90
2019-05-06T14:38:34.058Z,19.42
2019-05-06T14:41:08.142Z,19.37
2019-05-06T14:43:38.308Z,19.17
2019-05-06T14:46:08.827Z,18.90
2019-05-06T14:48:38.278Z,18.64
2019-05-06T14:51:08.578Z,18.15
2019-05-06T14:53:37.965Z,18.08
2019-05-06T14:56:28.376Z,18.46
2019-05-06T14:59:06.742Z,18.18
2019-05-06T15:01:38.390Z,18.05
2019-05-06T15:04:09.295Z,17.88
2019-05-06T15:06:39.630Z,17.70
2019-05-06T15:09:13.141Z,18.22
2019-05-06T15:11:44.516Z,18.26
2019-05-06T15:14:13.909Z,18.50
2019-05-06T15:16:45.743Z,18.69
2019-05-06T15:19:15.318Z,18.87
2019-05-06T15:21:45.719Z,18.94
2019-05-06T15:24:21.039Z,19.24
2019-05-06T15:26:52.015Z,19.31
2019-05-06T15:29:23.754Z,19.27
2019-05-06T15:32:09.748Z,19.13
2019-05-06T15:34:57.138Z,19.27
2019-05-06T15:37:28.167Z,18.98
2019-05-06T15:40:00.025Z,19.27
2019-05-06T15:42:30.429Z,19.21
2019-05-06T15:45:00.941Z,19.67
2019-05-06T15:47:32.289Z,19.87
2019-05-06T15:50:02.378Z,20.03
2019-05-06T15:52:32.868Z,20.19
2019-05-06T15:55:04.651Z,20.17
2019-05-06T15:57:36.107Z,20.31
2019-05-06T16:00:07.598Z,20.38
2019-05-06T16:02:37.517Z,20.15
2019-05-06T16:05:13.920Z,20.02
2019-05-06T16:07:43.401Z,19.81
2019-05-06T16:10:13.479Z,19.63
2019-05-06T16:12:45.692Z,19.49
2019-05-06T16:15:15.112Z,18.92
2019-05-06T16:17:44.505Z,18.76
2019-05-06T16:20:14.975Z,18.36
2019-05-06T16:22:47.057Z,18.20
2019-05-06T16:25:18.102Z,18.29
2019-05-06T16:27:53.843Z,18.20
2019-05-06T16:30:24.066Z,18.23
2019-05-06T16:32:53.376Z,18.32
2019-05-06T16:35:23.780Z,17.80
2019-05-06T16:37:53.265Z,18.07
2019-05-06T16:40:23.216Z,17.72
2019-05-06T16:42:54.650Z,17.68
2019-05-06T16:45:24.421Z,17.73
2019-05-06T16:47:53.822Z,17.97
2019-05-06T16:50:29.499Z,18.23
2019-05-06T16:52:59.230Z,18.08
2019-05-06T16:55:32.953Z,18.06
2019-05-06T16:58:04.370Z,17.98
2019-05-06T17:00:35.422Z,18.44
2019-05-06T17:03:09.043Z,18.81
2019-05-06T17:05:42.451Z,18.72
2019-05-06T17:08:12.371Z,18.57
2019-05-06T17:10:43.367Z,18.60
2019-05-06T17:13:13.656Z,18.20
2019-05-06T17:15:44.068Z,17.88
2019-05-06T17:18:14.462Z,17.78
2019-05-06T17:20:44.866Z,17.74
2019-05-06T17:23:15.286Z,17.74
2019-05-06T17:25:45.782Z,17.70
2019-05-06T17:28:33.479Z,17.62
2019-05-06T17:31:17.196Z,17.68
2019-05-06T17:33:48.159Z,17.49
2019-05-06T17:36:21.884Z,17.48
2019-05-06T17:38:53.619Z,17.53
2019-05-06T17:41:26.531Z,17.61
2019-05-06T17:43:55.489Z,17.75
2019-05-06T17:46:44.381Z,17.85
2019-05-06T17:49:15.352Z,17.71
2019-05-06T17:51:51.979Z,17.82
2019-05-06T17:54:25.742Z,17.75
2019-05-06T17:56:54.571Z,17.63
2019-05-06T17:59:25.839Z,17.62
2019-05-06T18:01:59.038Z,17.54
2019-05-06T18:04:31.070Z,17.42
2019-05-06T18:07:01.522Z,17.37
2019-05-06T18:09:33.429Z,17.33
2019-05-06T18:12:03.346Z,17.42
2019-05-06T18:14:33.784Z,17.11
2019-05-06T18:17:03.773Z,17.30
2019-05-06T18:19:37.101Z,17.14
2019-05-06T18:22:06.513Z,17.21
2019-05-06T18:24:36.969Z,17.26
2019-05-06T18:27:08.954Z,17.25
2019-05-06T18:29:39.451Z,17.09
2019-05-06T18:32:12.758Z,17.04
2019-05-06T18:34:42.187Z,16.99
2019-05-06T18:37:13.693Z,16.93
2019-05-06T18:39:45.782Z,16.93
2019-05-06T18:42:20.402Z,16.70
2019-05-06T18:44:50.362Z,16.69
2019-05-06T18:47:22.210Z,16.63
2019-05-06T18:49:52.616Z,16.54
2019-05-06T18:52:22.911Z,16.70
2019-05-06T18:54:52.714Z,16.86
2019-05-06T18:57:22.698Z,16.78
2019-05-06T18:59:55.106Z,16.52
2019-05-06T19:02:26.833Z,16.52
2019-05-06T19:04:58.184Z,16.54
2019-05-06T19:07:29.842Z,16.56
2019-05-06T19:10:03.228Z,16.71
2019-05-06T19:12:39.900Z,16.74
2019-05-06T19:15:03.494Z,16.65
2019-05-06T19:17:36.164Z,16.84
2019-05-06T19:20:10.518Z,16.74
2019-05-06T19:22:43.092Z,16.78
2019-05-06T19:25:14.634Z,16.85
2019-05-06T19:27:45.097Z,16.78
2019-05-06T19:30:16.080Z,16.70
2019-05-06T19:32:46.542Z,16.69
2019-05-06T19:35:19.637Z,16.68
2019-05-06T19:37:48.921Z,16.65
2019-05-06T19:40:18.527Z,16.75
2019-05-06T19:42:50.307Z,16.70
2019-05-06T19:45:22.955Z,16.79
2019-05-06T19:47:52.403Z,16.91
2019-05-06T19:50:25.782Z,16.71
2019-05-06T19:52:53.972Z,16.62
2019-05-06T19:55:25.723Z,16.63
2019-05-06T19:57:55.126Z,16.80
2019-05-06T20:00:26.344Z,16.70
2019-05-06T20:02:56.730Z,16.62
2019-05-06T20:05:28.713Z,16.63
2019-05-06T20:08:16.657Z,16.47
2019-05-06T20:10:48.634Z,16.42
2019-05-06T20:13:20.781Z,16.34
2019-05-06T20:15:52.097Z,16.36
2019-05-06T20:18:21.618Z,16.32
2019-05-06T20:20:52.804Z,16.26
2019-05-06T20:23:23.166Z,15.98
2019-05-06T20:25:52.152Z,15.91
2019-05-06T20:28:22.647Z,15.70
2019-05-06T20:30:53.067Z,15.66
2019-05-06T20:33:23.844Z,15.60
2019-05-06T20:35:55.190Z,15.52
2019-05-06T20:38:25.602Z,15.31
2019-05-06T20:40:57.158Z,15.35
2019-05-06T20:43:27.562Z,15.27
2019-05-06T20:45:56.820Z,15.09
2019-05-06T20:48:27.322Z,15.11
2019-05-06T20:50:57.866Z,15.17
2019-05-06T20:53:28.350Z,15.19
2019-05-06T20:55:57.824Z,15.15
2019-05-06T20:58:27.229Z,14.86
2019-05-06T21:00:57.699Z,14.63
2019-05-06T21:03:28.187Z,14.64
2019-05-06T21:05:58.499Z,14.57
2019-05-06T21:08:29.101Z,14.47
2019-05-06T21:10:58.593Z,14.45
2019-05-06T21:13:34.848Z,14.46
2019-05-06T21:16:02.330Z,14.50
2019-05-06T21:18:32.722Z,14.58
2019-05-06T21:21:03.113Z,14.75
2019-05-06T21:23:33.849Z,15.01
2019-05-06T21:26:04.798Z,15.12
2019-05-06T21:28:34.176Z,15.44
2019-05-06T21:31:04.657Z,15.52
2019-05-06T21:33:35.037Z,15.63
2019-05-06T21:36:05.549Z,15.69
2019-05-06T21:38:35.138Z,15.65
2019-05-06T21:41:05.535Z,15.59
2019-05-06T21:43:47.063Z,15.45
2019-05-06T21:46:09.014Z,15.22
2019-05-06T21:48:38.424Z,15.00
2019-05-06T21:51:07.923Z,14.74
2019-05-06T21:53:38.283Z,14.48
2019-05-06T21:56:08.689Z,14.25
2019-05-06T21:58:39.318Z,14.20
2019-05-06T22:01:09.730Z,13.97
2019-05-06T22:03:39.232Z,13.92
2019-05-06T22:06:08.758Z,13.83
2019-05-06T22:08:42.364Z,13.82
2019-05-06T22:11:12.002Z,13.80
2019-05-06T22:13:42.535Z,13.81
2019-05-06T22:16:12.369Z,13.73
2019-05-06T22:18:45.595Z,13.74
2019-05-06T22:21:17.755Z,13.79
2019-05-06T22:23:53.074Z,13.82
2019-05-06T22:26:24.121Z,13.70
2019-05-06T22:28:55.188Z,13.68
2019-05-06T22:31:26.133Z,13.75
2019-05-06T22:33:55.901Z,13.58
2019-05-06T22:36:26.572Z,13.52
2019-05-06T22:38:57.903Z,13.53
2019-05-06T22:41:29.460Z,13.55
2019-05-06T22:44:12.654Z,13.50
2019-05-06T22:46:33.010Z,13.39
2019-05-06T22:49:03.667Z,13.36
2019-05-06T22:51:34.007Z,13.37
2019-05-06T22:54:04.630Z,13.38
2019-05-06T22:56:35.026Z,13.37
2019-05-06T22:59:05.329Z,13.36
2019-05-06T23:01:38.868Z,13.40
2019-05-06T23:04:09.953Z,13.32
2019-05-06T23:06:39.266Z,13.25
2019-05-06T23:09:10.128Z,13.12
2019-05-06T23:11:42.436Z,13.08
2019-05-06T23:14:13.792Z,13.12
2019-05-06T23:16:43.300Z,13.09
2019-05-06T23:19:13.691Z,13.05
2019-05-06T23:21:44.304Z,13.01
2019-05-06T23:24:18.061Z,12.99
2019-05-06T23:26:47.423Z,13.00
2019-05-06T23:29:16.831Z,12.93
2019-05-06T23:31:46.253Z,12.84
2019-05-06T23:34:18.229Z,12.78
2019-05-06T23:37:04.920Z,12.74
2019-05-06T23:40:13.456Z,12.82
2019-05-06T23:43:19.382Z,12.77
2019-05-06T23:46:26.314Z,12.64
2019-05-06T23:49:33.177Z,12.54
2019-05-06T23:52:40.142Z,12.62
2019-05-06T23:55:47.103Z,12.56
2019-05-06T23:58:16.475Z,12.52
